Terminal Aerodrome Forecast
Issued by NWS Lake Charles, LA

Home | Current Version | Previous Version | Text Only | Print | Product List | Glossary On
Versions: 1 2 3 4 5 6 7 8 9 10 11 12 13
000
FTUS44 KLCH 252330
TAFARA
TAF
KARA 252330Z 2600/2624 17008KT P6SM FEW025 SCT250
     FM260300 17006KT P6SM FEW035
     FM260600 16008KT P6SM FEW020 SCT028
      TEMPO 2610/2614 4SM BR
     FM261500 17010KT P6SM BKN025
     FM262100 17011KT P6SM VCSH OVC035=

USA.gov is the U.S. government's official web portal to all federal, state and local government web resources and services.